sensor_id;sensor_type;location;lat;lon;timestamp;temperature;humidity
60848;DHT22;46681;47.696;9.140;2022-10-31T00:00:08;14.10;74.90
60848;DHT22;46681;47.696;9.140;2022-10-31T00:02:34;14.10;74.90
60848;DHT22;46681;47.696;9.140;2022-10-31T00:05:00;14.20;74.90
60848;DHT22;46681;47.696;9.140;2022-10-31T00:07:25;14.10;75.00
60848;DHT22;46681;47.696;9.140;2022-10-31T00:09:50;14.20;75.10
60848;DHT22;46681;47.696;9.140;2022-10-31T00:12:16;14.20;75.10
60848;DHT22;46681;47.696;9.140;2022-10-31T00:14:43;14.10;75.00
60848;DHT22;46681;47.696;9.140;2022-10-31T00:17:09;14.20;75.20
60848;DHT22;46681;47.696;9.140;2022-10-31T00:19:35;14.20;75.10
60848;DHT22;46681;47.696;9.140;2022-10-31T00:22:00;14.20;75.20
60848;DHT22;46681;47.696;9.140;2022-10-31T00:24:26;14.10;75.50
60848;DHT22;46681;47.696;9.140;2022-10-31T00:26:54;14.20;75.10
60848;DHT22;46681;47.696;9.140;2022-10-31T00:29:19;14.10;75.10
60848;DHT22;46681;47.696;9.140;2022-10-31T00:31:47;14.20;75.20
60848;DHT22;46681;47.696;9.140;2022-10-31T00:34:12;14.20;75.10
60848;DHT22;46681;47.696;9.140;2022-10-31T00:36:38;14.20;75.20
60848;DHT22;46681;47.696;9.140;2022-10-31T00:39:04;14.10;75.20
60848;DHT22;46681;47.696;9.140;2022-10-31T00:41:29;14.20;75.20
60848;DHT22;46681;47.696;9.140;2022-10-31T00:43:56;14.20;75.20
60848;DHT22;46681;47.696;9.140;2022-10-31T00:46:22;14.20;75.10
60848;DHT22;46681;47.696;9.140;2022-10-31T00:48:47;14.20;75.10
60848;DHT22;46681;47.696;9.140;2022-10-31T00:51:13;14.20;75.00
60848;DHT22;46681;47.696;9.140;2022-10-31T00:53:41;14.20;75.20
60848;DHT22;46681;47.696;9.140;2022-10-31T00:56:06;14.20;75.10
60848;DHT22;46681;47.696;9.140;2022-10-31T00:58:32;14.20;75.10
60848;DHT22;46681;47.696;9.140;2022-10-31T01:00:57;14.20;75.20
60848;DHT22;46681;47.696;9.140;2022-10-31T01:03:33;14.20;75.10
60848;DHT22;46681;47.696;9.140;2022-10-31T01:06:05;14.20;75.10
60848;DHT22;46681;47.696;9.140;2022-10-31T01:08:32;14.20;75.20
60848;DHT22;46681;47.696;9.140;2022-10-31T01:11:10;14.20;75.60
60848;DHT22;46681;47.696;9.140;2022-10-31T01:13:35;14.20;75.20
60848;DHT22;46681;47.696;9.140;2022-10-31T01:16:05;14.30;75.20
60848;DHT22;46681;47.696;9.140;2022-10-31T01:18:31;14.20;75.10
60848;DHT22;46681;47.696;9.140;2022-10-31T01:21:07;14.30;75.10
60848;DHT22;46681;47.696;9.140;2022-10-31T01:23:34;14.20;75.00
60848;DHT22;46681;47.696;9.140;2022-10-31T01:28:45;14.30;75.20
60848;DHT22;46681;47.696;9.140;2022-10-31T01:31:12;14.30;75.20
60848;DHT22;46681;47.696;9.140;2022-10-31T01:33:41;14.30;75.20
60848;DHT22;46681;47.696;9.140;2022-10-31T01:38:40;14.30;75.10
60848;DHT22;46681;47.696;9.140;2022-10-31T01:41:06;14.30;75.10
60848;DHT22;46681;47.696;9.140;2022-10-31T01:44:00;14.30;75.10
60848;DHT22;46681;47.696;9.140;2022-10-31T01:46:32;14.30;75.10
60848;DHT22;46681;47.696;9.140;2022-10-31T01:49:01;14.30;75.60
60848;DHT22;46681;47.696;9.140;2022-10-31T01:51:31;14.30;75.10
60848;DHT22;46681;47.696;9.140;2022-10-31T01:54:02;14.30;75.20
60848;DHT22;46681;47.696;9.140;2022-10-31T01:56:32;14.30;75.10
60848;DHT22;46681;47.696;9.140;2022-10-31T01:59:01;14.30;75.10
60848;DHT22;46681;47.696;9.140;2022-10-31T02:01:28;14.30;75.20
60848;DHT22;46681;47.696;9.140;2022-10-31T02:03:54;14.30;75.10
60848;DHT22;46681;47.696;9.140;2022-10-31T02:06:36;14.30;75.10
60848;DHT22;46681;47.696;9.140;2022-10-31T02:09:07;14.30;75.10
60848;DHT22;46681;47.696;9.140;2022-10-31T02:11:34;14.40;75.20
60848;DHT22;46681;47.696;9.140;2022-10-31T02:14:06;14.40;75.20
60848;DHT22;46681;47.696;9.140;2022-10-31T02:16:31;14.30;75.20
60848;DHT22;46681;47.696;9.140;2022-10-31T02:18:57;14.30;75.20
60848;DHT22;46681;47.696;9.140;2022-10-31T02:26:43;14.30;75.10
60848;DHT22;46681;47.696;9.140;2022-10-31T02:37:22;14.40;75.20
60848;DHT22;46681;47.696;9.140;2022-10-31T02:42:40;14.40;75.20
60848;DHT22;46681;47.696;9.140;2022-10-31T02:47:40;14.30;75.20
60848;DHT22;46681;47.696;9.140;2022-10-31T02:50:11;14.30;75.10
60848;DHT22;46681;47.696;9.140;2022-10-31T02:52:37;14.40;75.20
60848;DHT22;46681;47.696;9.140;2022-10-31T03:00:40;14.40;75.10
60848;DHT22;46681;47.696;9.140;2022-10-31T03:06:35;14.40;75.20
60848;DHT22;46681;47.696;9.140;2022-10-31T03:12:10;14.40;75.20
60848;DHT22;46681;47.696;9.140;2022-10-31T03:17:44;14.40;75.10
60848;DHT22;46681;47.696;9.140;2022-10-31T03:20:13;14.40;75.10
60848;DHT22;46681;47.696;9.140;2022-10-31T03:22:42;14.40;75.20
60848;DHT22;46681;47.696;9.140;2022-10-31T03:25:08;14.40;75.20
60848;DHT22;46681;47.696;9.140;2022-10-31T03:27:35;14.40;75.20
60848;DHT22;46681;47.696;9.140;2022-10-31T03:30:06;14.40;75.20
60848;DHT22;46681;47.696;9.140;2022-10-31T03:32:36;14.40;75.10
60848;DHT22;46681;47.696;9.140;2022-10-31T03:35:08;14.40;75.10
60848;DHT22;46681;47.696;9.140;2022-10-31T03:37:37;14.40;75.10
60848;DHT22;46681;47.696;9.140;2022-10-31T03:40:08;14.40;75.10
60848;DHT22;46681;47.696;9.140;2022-10-31T03:42:38;14.40;75.10
60848;DHT22;46681;47.696;9.140;2022-10-31T03:45:12;14.40;75.10
60848;DHT22;46681;47.696;9.140;2022-10-31T03:47:38;14.30;75.10
60848;DHT22;46681;47.696;9.140;2022-10-31T03:50:07;14.40;75.20
60848;DHT22;46681;47.696;9.140;2022-10-31T03:55:17;14.40;75.20
60848;DHT22;46681;47.696;9.140;2022-10-31T03:58:01;14.40;75.10
60848;DHT22;46681;47.696;9.140;2022-10-31T04:00:31;14.40;75.10
60848;DHT22;46681;47.696;9.140;2022-10-31T04:03:09;14.40;75.20
60848;DHT22;46681;47.696;9.140;2022-10-31T04:05:37;14.40;75.10
60848;DHT22;46681;47.696;9.140;2022-10-31T04:08:08;14.40;75.10
60848;DHT22;46681;47.696;9.140;2022-10-31T04:10:35;14.40;75.10
60848;DHT22;46681;47.696;9.140;2022-10-31T04:13:14;14.40;75.00
60848;DHT22;46681;47.696;9.140;2022-10-31T04:15:43;14.40;75.10
60848;DHT22;46681;47.696;9.140;2022-10-31T04:18:09;14.40;75.10
60848;DHT22;46681;47.696;9.140;2022-10-31T04:20:38;14.40;75.10
60848;DHT22;46681;47.696;9.140;2022-10-31T04:23:22;14.40;75.10
60848;DHT22;46681;47.696;9.140;2022-10-31T04:25:49;14.40;75.00
60848;DHT22;46681;47.696;9.140;2022-10-31T04:28:14;14.40;75.10
60848;DHT22;46681;47.696;9.140;2022-10-31T04:30:40;14.30;75.10
60848;DHT22;46681;47.696;9.140;2022-10-31T04:33:06;14.40;75.10
60848;DHT22;46681;47.696;9.140;2022-10-31T04:35:33;14.40;75.10
60848;DHT22;46681;47.696;9.140;2022-10-31T04:37:58;14.40;75.10
60848;DHT22;46681;47.696;9.140;2022-10-31T04:40:24;14.40;75.00
60848;DHT22;46681;47.696;9.140;2022-10-31T04:42:49;14.40;75.10
60848;DHT22;46681;47.696;9.140;2022-10-31T04:45:15;14.40;75.00
60848;DHT22;46681;47.696;9.140;2022-10-31T04:47:41;14.50;75.00
60848;DHT22;46681;47.696;9.140;2022-10-31T04:50:09;14.50;75.00
60848;DHT22;46681;47.696;9.140;2022-10-31T04:52:42;14.50;74.90
60848;DHT22;46681;47.696;9.140;2022-10-31T04:55:12;14.40;74.90
60848;DHT22;46681;47.696;9.140;2022-10-31T04:57:46;14.50;74.90
60848;DHT22;46681;47.696;9.140;2022-10-31T05:00:13;14.50;74.90
60848;DHT22;46681;47.696;9.140;2022-10-31T05:02:56;14.50;74.90
60848;DHT22;46681;47.696;9.140;2022-10-31T05:05:25;14.50;74.90
60848;DHT22;46681;47.696;9.140;2022-10-31T05:07:52;14.50;74.90
60848;DHT22;46681;47.696;9.140;2022-10-31T05:10:22;14.50;75.00
60848;DHT22;46681;47.696;9.140;2022-10-31T05:12:54;14.50;74.90
60848;DHT22;46681;47.696;9.140;2022-10-31T05:15:21;14.50;74.90
60848;DHT22;46681;47.696;9.140;2022-10-31T05:17:50;14.50;74.90
60848;DHT22;46681;47.696;9.140;2022-10-31T05:20:17;14.50;74.90
60848;DHT22;46681;47.696;9.140;2022-10-31T05:22:44;14.50;74.90
60848;DHT22;46681;47.696;9.140;2022-10-31T05:25:11;14.50;74.90
60848;DHT22;46681;47.696;9.140;2022-10-31T05:27:46;14.50;75.00
60848;DHT22;46681;47.696;9.140;2022-10-31T05:30:16;14.50;75.00
60848;DHT22;46681;47.696;9.140;2022-10-31T05:32:46;14.50;75.00
60848;DHT22;46681;47.696;9.140;2022-10-31T05:35:16;14.50;75.00
60848;DHT22;46681;47.696;9.140;2022-10-31T05:37:42;14.40;75.00
60848;DHT22;46681;47.696;9.140;2022-10-31T05:40:11;14.50;75.10
60848;DHT22;46681;47.696;9.140;2022-10-31T05:42:39;14.50;75.10
60848;DHT22;46681;47.696;9.140;2022-10-31T05:45:11;14.40;75.00
60848;DHT22;46681;47.696;9.140;2022-10-31T05:47:38;14.50;75.10
60848;DHT22;46681;47.696;9.140;2022-10-31T05:50:04;14.40;75.00
60848;DHT22;46681;47.696;9.140;2022-10-31T05:52:32;14.50;75.10
60848;DHT22;46681;47.696;9.140;2022-10-31T05:54:58;14.40;75.10
60848;DHT22;46681;47.696;9.140;2022-10-31T05:57:25;14.50;75.10
60848;DHT22;46681;47.696;9.140;2022-10-31T05:59:52;14.40;75.00
60848;DHT22;46681;47.696;9.140;2022-10-31T06:02:20;14.40;75.10
60848;DHT22;46681;47.696;9.140;2022-10-31T06:04:46;14.40;75.00
60848;DHT22;46681;47.696;9.140;2022-10-31T06:07:11;14.40;75.10
60848;DHT22;46681;47.696;9.140;2022-10-31T06:09:40;14.40;75.10
60848;DHT22;46681;47.696;9.140;2022-10-31T06:12:10;14.40;75.10
60848;DHT22;46681;47.696;9.140;2022-10-31T06:14:36;14.40;75.10
60848;DHT22;46681;47.696;9.140;2022-10-31T06:17:01;14.40;75.20
60848;DHT22;46681;47.696;9.140;2022-10-31T06:19:27;14.40;75.10
60848;DHT22;46681;47.696;9.140;2022-10-31T06:21:52;14.40;75.10
60848;DHT22;46681;47.696;9.140;2022-10-31T06:24:19;14.40;75.20
60848;DHT22;46681;47.696;9.140;2022-10-31T06:26:49;14.40;75.10
60848;DHT22;46681;47.696;9.140;2022-10-31T06:29:15;14.40;75.20
60848;DHT22;46681;47.696;9.140;2022-10-31T06:31:41;14.40;75.20
60848;DHT22;46681;47.696;9.140;2022-10-31T06:34:09;14.40;75.20
60848;DHT22;46681;47.696;9.140;2022-10-31T06:36:36;14.40;75.20
60848;DHT22;46681;47.696;9.140;2022-10-31T06:39:06;14.40;75.20
60848;DHT22;46681;47.696;9.140;2022-10-31T06:41:35;14.40;75.10
60848;DHT22;46681;47.696;9.140;2022-10-31T06:44:09;14.40;75.20
60848;DHT22;46681;47.696;9.140;2022-10-31T06:46:39;14.40;75.10
60848;DHT22;46681;47.696;9.140;2022-10-31T06:49:06;14.40;75.10
60848;DHT22;46681;47.696;9.140;2022-10-31T06:51:34;14.40;75.20
60848;DHT22;46681;47.696;9.140;2022-10-31T06:54:01;14.40;75.20
60848;DHT22;46681;47.696;9.140;2022-10-31T06:56:30;14.40;75.10
60848;DHT22;46681;47.696;9.140;2022-10-31T06:59:00;14.40;75.10
60848;DHT22;46681;47.696;9.140;2022-10-31T07:01:26;14.40;75.00
60848;DHT22;46681;47.696;9.140;2022-10-31T07:04:01;14.40;75.10
60848;DHT22;46681;47.696;9.140;2022-10-31T07:06:29;14.50;75.10
60848;DHT22;46681;47.696;9.140;2022-10-31T07:09:00;14.50;75.10
60848;DHT22;46681;47.696;9.140;2022-10-31T07:11:31;14.50;75.00
60848;DHT22;46681;47.696;9.140;2022-10-31T07:13:57;14.50;75.00
60848;DHT22;46681;47.696;9.140;2022-10-31T07:16:27;14.50;75.10
60848;DHT22;46681;47.696;9.140;2022-10-31T07:18:57;14.50;75.00
60848;DHT22;46681;47.696;9.140;2022-10-31T07:21:24;14.50;75.00
60848;DHT22;46681;47.696;9.140;2022-10-31T07:23:55;14.50;75.00
60848;DHT22;46681;47.696;9.140;2022-10-31T07:26:33;14.50;75.50
60848;DHT22;46681;47.696;9.140;2022-10-31T07:29:01;14.50;75.20
60848;DHT22;46681;47.696;9.140;2022-10-31T07:31:29;14.60;75.20
60848;DHT22;46681;47.696;9.140;2022-10-31T07:33:57;14.50;75.10
60848;DHT22;46681;47.696;9.140;2022-10-31T07:36:26;14.50;75.10
60848;DHT22;46681;47.696;9.140;2022-10-31T07:38:59;14.60;75.10
60848;DHT22;46681;47.696;9.140;2022-10-31T07:41:32;14.50;75.00
60848;DHT22;46681;47.696;9.140;2022-10-31T07:43:58;14.50;75.00
60848;DHT22;46681;47.696;9.140;2022-10-31T07:46:26;14.50;75.00
60848;DHT22;46681;47.696;9.140;2022-10-31T07:48:53;14.60;75.00
60848;DHT22;46681;47.696;9.140;2022-10-31T07:51:24;14.60;74.90
60848;DHT22;46681;47.696;9.140;2022-10-31T07:53:49;14.60;74.90
60848;DHT22;46681;47.696;9.140;2022-10-31T07:56:15;14.60;76.30
60848;DHT22;46681;47.696;9.140;2022-10-31T07:58:41;14.60;77.00
60848;DHT22;46681;47.696;9.140;2022-10-31T08:01:06;14.60;76.20
60848;DHT22;46681;47.696;9.140;2022-10-31T08:03:32;14.60;75.60
60848;DHT22;46681;47.696;9.140;2022-10-31T08:05:57;14.60;76.10
60848;DHT22;46681;47.696;9.140;2022-10-31T08:08:27;14.70;75.70
60848;DHT22;46681;47.696;9.140;2022-10-31T08:10:53;14.70;75.50
60848;DHT22;46681;47.696;9.140;2022-10-31T08:13:18;14.70;75.40
60848;DHT22;46681;47.696;9.140;2022-10-31T08:15:48;14.70;75.20
60848;DHT22;46681;47.696;9.140;2022-10-31T08:18:15;14.70;75.10
60848;DHT22;46681;47.696;9.140;2022-10-31T08:20:43;14.70;75.00
60848;DHT22;46681;47.696;9.140;2022-10-31T08:23:11;14.80;75.00
60848;DHT22;46681;47.696;9.140;2022-10-31T08:25:38;14.80;74.80
60848;DHT22;46681;47.696;9.140;2022-10-31T08:28:08;14.80;74.70
60848;DHT22;46681;47.696;9.140;2022-10-31T08:30:37;14.80;74.70
60848;DHT22;46681;47.696;9.140;2022-10-31T08:35:33;14.90;76.20
60848;DHT22;46681;47.696;9.140;2022-10-31T08:38:00;14.90;75.70
60848;DHT22;46681;47.696;9.140;2022-10-31T08:40:31;14.90;75.30
60848;DHT22;46681;47.696;9.140;2022-10-31T08:43:02;14.90;75.30
60848;DHT22;46681;47.696;9.140;2022-10-31T08:45:33;14.90;75.20
60848;DHT22;46681;47.696;9.140;2022-10-31T08:48:09;14.90;75.10
60848;DHT22;46681;47.696;9.140;2022-10-31T08:50:37;15.00;75.10
60848;DHT22;46681;47.696;9.140;2022-10-31T08:53:09;15.00;75.10
60848;DHT22;46681;47.696;9.140;2022-10-31T08:55:38;15.00;74.90
60848;DHT22;46681;47.696;9.140;2022-10-31T08:58:19;15.00;74.80
60848;DHT22;46681;47.696;9.140;2022-10-31T09:00:51;15.00;74.80
60848;DHT22;46681;47.696;9.140;2022-10-31T09:03:26;15.00;74.80
60848;DHT22;46681;47.696;9.140;2022-10-31T09:05:57;15.10;74.70
60848;DHT22;46681;47.696;9.140;2022-10-31T09:08:28;15.10;76.20
60848;DHT22;46681;47.696;9.140;2022-10-31T09:11:02;15.10;76.20
60848;DHT22;46681;47.696;9.140;2022-10-31T09:13:30;15.10;75.50
60848;DHT22;46681;47.696;9.140;2022-10-31T09:15:56;15.20;75.20
60848;DHT22;46681;47.696;9.140;2022-10-31T09:18:25;15.20;75.10
60848;DHT22;46681;47.696;9.140;2022-10-31T09:20:52;15.20;75.10
60848;DHT22;46681;47.696;9.140;2022-10-31T09:23:23;15.20;75.00
60848;DHT22;46681;47.696;9.140;2022-10-31T09:25:52;15.20;75.00
60848;DHT22;46681;47.696;9.140;2022-10-31T09:28:24;15.20;74.90
60848;DHT22;46681;47.696;9.140;2022-10-31T09:30:52;15.20;74.90
60848;DHT22;46681;47.696;9.140;2022-10-31T09:33:19;15.20;74.80
60848;DHT22;46681;47.696;9.140;2022-10-31T09:35:45;15.30;74.70
60848;DHT22;46681;47.696;9.140;2022-10-31T09:38:17;15.30;74.70
60848;DHT22;46681;47.696;9.140;2022-10-31T09:47:07;15.30;74.40
60848;DHT22;46681;47.696;9.140;2022-10-31T09:53:05;15.40;74.30
60848;DHT22;46681;47.696;9.140;2022-10-31T09:55:44;15.40;74.80
60848;DHT22;46681;47.696;9.140;2022-10-31T09:58:27;15.50;74.80
60848;DHT22;46681;47.696;9.140;2022-10-31T10:01:00;15.50;74.40
60848;DHT22;46681;47.696;9.140;2022-10-31T10:03:41;15.50;74.40
60848;DHT22;46681;47.696;9.140;2022-10-31T10:06:19;15.60;74.40
60848;DHT22;46681;47.696;9.140;2022-10-31T10:08:59;15.60;75.80
60848;DHT22;46681;47.696;9.140;2022-10-31T10:12:37;15.60;75.50
60848;DHT22;46681;47.696;9.140;2022-10-31T10:20:16;15.70;74.80
60848;DHT22;46681;47.696;9.140;2022-10-31T10:26:02;15.70;74.70
60848;DHT22;46681;47.696;9.140;2022-10-31T10:28:45;15.70;74.60
60848;DHT22;46681;47.696;9.140;2022-10-31T10:31:18;15.80;74.50
60848;DHT22;46681;47.696;9.140;2022-10-31T10:34:11;15.80;74.40
60848;DHT22;46681;47.696;9.140;2022-10-31T10:39:35;15.80;74.10
60848;DHT22;46681;47.696;9.140;2022-10-31T10:42:17;15.90;74.20
60848;DHT22;46681;47.696;9.140;2022-10-31T10:44:50;15.90;74.00
60848;DHT22;46681;47.696;9.140;2022-10-31T10:47:20;15.90;74.00
60848;DHT22;46681;47.696;9.140;2022-10-31T10:49:53;15.90;74.00
60848;DHT22;46681;47.696;9.140;2022-10-31T10:58:16;15.90;74.20
60848;DHT22;46681;47.696;9.140;2022-10-31T11:00:45;15.90;74.20
60848;DHT22;46681;47.696;9.140;2022-10-31T11:03:21;15.90;74.20
60848;DHT22;46681;47.696;9.140;2022-10-31T11:05:56;15.90;74.20
60848;DHT22;46681;47.696;9.140;2022-10-31T11:08:36;15.90;74.30
60848;DHT22;46681;47.696;9.140;2022-10-31T11:13:46;15.90;74.50
60848;DHT22;46681;47.696;9.140;2022-10-31T11:16:31;15.90;74.60
60848;DHT22;46681;47.696;9.140;2022-10-31T11:21:49;15.90;74.40
60848;DHT22;46681;47.696;9.140;2022-10-31T11:24:18;15.90;74.40
60848;DHT22;46681;47.696;9.140;2022-10-31T11:26:50;15.90;74.30
60848;DHT22;46681;47.696;9.140;2022-10-31T11:29:27;15.90;74.20
60848;DHT22;46681;47.696;9.140;2022-10-31T11:31:56;16.00;74.30
60848;DHT22;46681;47.696;9.140;2022-10-31T11:34:42;16.00;74.30
60848;DHT22;46681;47.696;9.140;2022-10-31T11:37:28;16.00;74.20
60848;DHT22;46681;47.696;9.140;2022-10-31T11:40:06;16.00;74.20
60848;DHT22;46681;47.696;9.140;2022-10-31T11:42:45;16.00;74.20
60848;DHT22;46681;47.696;9.140;2022-10-31T11:48:00;16.00;74.10
60848;DHT22;46681;47.696;9.140;2022-10-31T11:50:40;16.00;74.10
60848;DHT22;46681;47.696;9.140;2022-10-31T11:53:28;16.10;74.10
60848;DHT22;46681;47.696;9.140;2022-10-31T11:56:15;16.10;74.00
60848;DHT22;46681;47.696;9.140;2022-10-31T11:59:05;16.10;73.80
60848;DHT22;46681;47.696;9.140;2022-10-31T12:01:46;16.20;73.60
60848;DHT22;46681;47.696;9.140;2022-10-31T12:04:13;16.20;73.50
60848;DHT22;46681;47.696;9.140;2022-10-31T12:06:50;16.20;73.40
60848;DHT22;46681;47.696;9.140;2022-10-31T12:09:33;16.20;73.40
60848;DHT22;46681;47.696;9.140;2022-10-31T12:12:37;16.20;73.50
60848;DHT22;46681;47.696;9.140;2022-10-31T12:15:26;16.30;73.50
60848;DHT22;46681;47.696;9.140;2022-10-31T12:18:24;16.30;73.50
60848;DHT22;46681;47.696;9.140;2022-10-31T12:23:55;16.30;73.50
60848;DHT22;46681;47.696;9.140;2022-10-31T12:35:20;16.40;78.00
60848;DHT22;46681;47.696;9.140;2022-10-31T12:57:50;17.20;73.70
60848;DHT22;46681;47.696;9.140;2022-10-31T13:00:22;17.40;73.70
60848;DHT22;46681;47.696;9.140;2022-10-31T13:03:23;17.50;73.40
60848;DHT22;46681;47.696;9.140;2022-10-31T13:05:58;17.70;72.70
60848;DHT22;46681;47.696;9.140;2022-10-31T13:08:47;18.00;72.10
60848;DHT22;46681;47.696;9.140;2022-10-31T13:11:47;18.40;70.90
60848;DHT22;46681;47.696;9.140;2022-10-31T13:14:26;18.50;69.50
60848;DHT22;46681;47.696;9.140;2022-10-31T13:16:57;18.70;69.60
60848;DHT22;46681;47.696;9.140;2022-10-31T13:19:45;19.10;68.60
60848;DHT22;46681;47.696;9.140;2022-10-31T13:22:24;19.30;67.10
60848;DHT22;46681;47.696;9.140;2022-10-31T13:25:25;19.20;66.60
60848;DHT22;46681;47.696;9.140;2022-10-31T13:28:05;19.20;67.00
60848;DHT22;46681;47.696;9.140;2022-10-31T13:30:40;19.50;67.00
60848;DHT22;46681;47.696;9.140;2022-10-31T13:33:20;19.70;66.30
60848;DHT22;46681;47.696;9.140;2022-10-31T13:36:19;20.00;65.60
60848;DHT22;46681;47.696;9.140;2022-10-31T13:44:22;20.40;64.00
60848;DHT22;46681;47.696;9.140;2022-10-31T13:46:58;20.50;63.20
60848;DHT22;46681;47.696;9.140;2022-10-31T13:52:22;20.40;63.10
60848;DHT22;46681;47.696;9.140;2022-10-31T13:58:29;20.10;62.60
60848;DHT22;46681;47.696;9.140;2022-10-31T14:01:23;19.60;63.10
60848;DHT22;46681;47.696;9.140;2022-10-31T14:04:16;19.10;64.40
60848;DHT22;46681;47.696;9.140;2022-10-31T14:07:17;18.70;64.90
60848;DHT22;46681;47.696;9.140;2022-10-31T14:13:29;18.30;66.70
60848;DHT22;46681;47.696;9.140;2022-10-31T14:18:35;18.00;68.10
60848;DHT22;46681;47.696;9.140;2022-10-31T14:21:25;17.90;68.30
60848;DHT22;46681;47.696;9.140;2022-10-31T14:23:53;17.80;69.00
60848;DHT22;46681;47.696;9.140;2022-10-31T14:34:57;17.50;69.90
60848;DHT22;46681;47.696;9.140;2022-10-31T14:47:05;17.30;70.80
60848;DHT22;46681;47.696;9.140;2022-10-31T14:52:07;17.20;71.30
60848;DHT22;46681;47.696;9.140;2022-10-31T14:54:44;17.10;71.50
60848;DHT22;46681;47.696;9.140;2022-10-31T14:57:30;17.10;71.60
60848;DHT22;46681;47.696;9.140;2022-10-31T15:00:07;17.10;71.80
60848;DHT22;46681;47.696;9.140;2022-10-31T15:06:09;17.00;71.90
60848;DHT22;46681;47.696;9.140;2022-10-31T15:08:48;17.00;72.20
60848;DHT22;46681;47.696;9.140;2022-10-31T15:11:24;17.00;72.40
60848;DHT22;46681;47.696;9.140;2022-10-31T15:14:01;17.00;72.90
60848;DHT22;46681;47.696;9.140;2022-10-31T15:16:43;17.10;75.20
60848;DHT22;46681;47.696;9.140;2022-10-31T15:19:13;17.10;76.20
60848;DHT22;46681;47.696;9.140;2022-10-31T15:21:50;17.00;74.80
60848;DHT22;46681;47.696;9.140;2022-10-31T15:24:26;16.90;73.40
60848;DHT22;46681;47.696;9.140;2022-10-31T15:27:00;16.80;73.10
60848;DHT22;46681;47.696;9.140;2022-10-31T15:29:28;16.70;73.30
60848;DHT22;46681;47.696;9.140;2022-10-31T15:32:12;16.70;73.50
60848;DHT22;46681;47.696;9.140;2022-10-31T15:34:47;16.60;73.60
60848;DHT22;46681;47.696;9.140;2022-10-31T15:37:25;16.60;73.80
60848;DHT22;46681;47.696;9.140;2022-10-31T15:40:33;16.50;73.80
60848;DHT22;46681;47.696;9.140;2022-10-31T15:43:18;16.40;74.20
60848;DHT22;46681;47.696;9.140;2022-10-31T15:45:44;16.30;74.80
60848;DHT22;46681;47.696;9.140;2022-10-31T15:48:22;16.30;75.10
60848;DHT22;46681;47.696;9.140;2022-10-31T15:50:55;16.20;74.90
60848;DHT22;46681;47.696;9.140;2022-10-31T15:53:27;16.20;75.20
60848;DHT22;46681;47.696;9.140;2022-10-31T15:56:06;16.10;75.40
60848;DHT22;46681;47.696;9.140;2022-10-31T15:58:52;16.10;75.30
60848;DHT22;46681;47.696;9.140;2022-10-31T16:01:27;16.10;75.40
60848;DHT22;46681;47.696;9.140;2022-10-31T16:06:40;16.20;74.70
60848;DHT22;46681;47.696;9.140;2022-10-31T16:09:23;16.20;75.10
60848;DHT22;46681;47.696;9.140;2022-10-31T16:11:51;16.20;74.50
60848;DHT22;46681;47.696;9.140;2022-10-31T16:14:26;16.20;74.40
60848;DHT22;46681;47.696;9.140;2022-10-31T16:17:00;16.20;74.30
60848;DHT22;46681;47.696;9.140;2022-10-31T16:22:26;16.20;74.50
60848;DHT22;46681;47.696;9.140;2022-10-31T16:27:49;16.10;75.40
60848;DHT22;46681;47.696;9.140;2022-10-31T16:30:36;16.00;75.80
60848;DHT22;46681;47.696;9.140;2022-10-31T16:33:30;15.80;76.10
60848;DHT22;46681;47.696;9.140;2022-10-31T16:36:00;15.80;76.00
60848;DHT22;46681;47.696;9.140;2022-10-31T16:38:28;15.70;76.20
60848;DHT22;46681;47.696;9.140;2022-10-31T16:40:55;15.80;76.40
60848;DHT22;46681;47.696;9.140;2022-10-31T16:43:26;15.80;76.70
60848;DHT22;46681;47.696;9.140;2022-10-31T16:45:55;15.80;76.70
60848;DHT22;46681;47.696;9.140;2022-10-31T16:48:27;15.80;76.90
60848;DHT22;46681;47.696;9.140;2022-10-31T16:50:57;15.80;77.10
60848;DHT22;46681;47.696;9.140;2022-10-31T16:53:24;15.80;77.20
60848;DHT22;46681;47.696;9.140;2022-10-31T16:55:57;15.80;77.30
60848;DHT22;46681;47.696;9.140;2022-10-31T16:58:34;15.80;77.50
60848;DHT22;46681;47.696;9.140;2022-10-31T17:01:01;15.70;77.60
60848;DHT22;46681;47.696;9.140;2022-10-31T17:03:28;15.70;77.80
60848;DHT22;46681;47.696;9.140;2022-10-31T17:05:56;15.70;78.00
60848;DHT22;46681;47.696;9.140;2022-10-31T17:08:24;15.70;78.10
60848;DHT22;46681;47.696;9.140;2022-10-31T17:10:59;15.70;78.30
60848;DHT22;46681;47.696;9.140;2022-10-31T17:13:33;15.70;78.20
60848;DHT22;46681;47.696;9.140;2022-10-31T17:16:03;15.60;81.30
60848;DHT22;46681;47.696;9.140;2022-10-31T17:18:30;15.70;80.50
60848;DHT22;46681;47.696;9.140;2022-10-31T17:20:59;15.70;79.80
60848;DHT22;46681;47.696;9.140;2022-10-31T17:23:31;15.60;79.50
60848;DHT22;46681;47.696;9.140;2022-10-31T17:25:57;15.60;79.20
60848;DHT22;46681;47.696;9.140;2022-10-31T17:28:28;15.60;79.40
60848;DHT22;46681;47.696;9.140;2022-10-31T17:31:01;15.60;79.70
60848;DHT22;46681;47.696;9.140;2022-10-31T17:33:30;15.50;79.50
60848;DHT22;46681;47.696;9.140;2022-10-31T17:35:58;15.50;79.40
60848;DHT22;46681;47.696;9.140;2022-10-31T17:38:33;15.50;79.70
60848;DHT22;46681;47.696;9.140;2022-10-31T17:41:04;15.50;79.70
60848;DHT22;46681;47.696;9.140;2022-10-31T17:43:36;15.40;79.80
60848;DHT22;46681;47.696;9.140;2022-10-31T17:46:04;15.40;79.60
60848;DHT22;46681;47.696;9.140;2022-10-31T17:48:34;15.40;79.90
60848;DHT22;46681;47.696;9.140;2022-10-31T17:51:05;15.40;80.00
60848;DHT22;46681;47.696;9.140;2022-10-31T17:53:34;15.30;79.90
60848;DHT22;46681;47.696;9.140;2022-10-31T17:56:07;15.30;80.00
60848;DHT22;46681;47.696;9.140;2022-10-31T17:58:45;15.30;80.20
60848;DHT22;46681;47.696;9.140;2022-10-31T18:01:14;15.30;80.20
60848;DHT22;46681;47.696;9.140;2022-10-31T18:03:45;15.30;80.40
60848;DHT22;46681;47.696;9.140;2022-10-31T18:06:12;15.30;80.40
60848;DHT22;46681;47.696;9.140;2022-10-31T18:08:41;15.30;80.40
60848;DHT22;46681;47.696;9.140;2022-10-31T18:11:12;15.20;80.50
60848;DHT22;46681;47.696;9.140;2022-10-31T18:13:39;15.20;80.50
60848;DHT22;46681;47.696;9.140;2022-10-31T18:16:14;15.20;80.50
60848;DHT22;46681;47.696;9.140;2022-10-31T18:18:42;15.20;80.50
60848;DHT22;46681;47.696;9.140;2022-10-31T18:21:09;15.20;80.80
60848;DHT22;46681;47.696;9.140;2022-10-31T18:23:37;15.20;80.60
60848;DHT22;46681;47.696;9.140;2022-10-31T18:26:03;15.10;80.80
60848;DHT22;46681;47.696;9.140;2022-10-31T18:28:30;15.10;80.70
60848;DHT22;46681;47.696;9.140;2022-10-31T18:30:59;15.20;81.00
60848;DHT22;46681;47.696;9.140;2022-10-31T18:33:29;15.10;81.10
60848;DHT22;46681;47.696;9.140;2022-10-31T18:36:05;15.10;80.80
60848;DHT22;46681;47.696;9.140;2022-10-31T18:38:39;15.10;80.80
60848;DHT22;46681;47.696;9.140;2022-10-31T18:41:16;15.10;81.30